sensor_id;sensor_type;location;lat;lon;timestamp;pressure;altitude;pressure_sealevel;temperature;humidity
50632;BME280;49583;45.590;-122.498;2023-03-20T00:00:06;100023.82;;;13.58;45.03
50632;BME280;49583;45.590;-122.498;2023-03-20T00:02:40;100031.14;;;13.54;45.38
50632;BME280;49583;45.590;-122.498;2023-03-20T00:04:53;100031.29;;;13.48;45.49
50632;BME280;49583;45.590;-122.498;2023-03-20T00:07:06;100040.02;;;13.40;46.04
50632;BME280;49583;45.590;-122.498;2023-03-20T00:09:21;100044.17;;;13.31;46.64
50632;BME280;49583;45.590;-122.498;2023-03-20T00:11:39;100042.05;;;13.21;47.21
50632;BME280;49583;45.590;-122.498;2023-03-20T00:13:52;100046.20;;;13.13;47.79
50632;BME280;49583;45.590;-122.498;2023-03-20T00:16:07;100048.70;;;13.07;48.13
50632;BME280;49583;45.590;-122.498;2023-03-20T00:18:21;100045.08;;;13.01;48.28
50632;BME280;49583;45.590;-122.498;2023-03-20T00:20:36;100048.20;;;12.96;48.50
50632;BME280;49583;45.590;-122.498;2023-03-20T00:22:48;100045.92;;;12.89;48.74
50632;BME280;49583;45.590;-122.498;2023-03-20T00:25:01;100047.00;;;12.83;48.86
50632;BME280;49583;45.590;-122.498;2023-03-20T00:27:15;100048.88;;;12.78;49.22
50632;BME280;49583;45.590;-122.498;2023-03-20T00:29:30;100050.42;;;12.71;49.24
50632;BME280;49583;45.590;-122.498;2023-03-20T00:31:44;100048.06;;;12.66;49.33
50632;BME280;49583;45.590;-122.498;2023-03-20T00:33:59;100048.29;;;12.61;49.82
50632;BME280;49583;45.590;-122.498;2023-03-20T00:36:13;100046.46;;;12.55;50.30
50632;BME280;49583;45.590;-122.498;2023-03-20T00:38:25;100041.98;;;12.51;50.62
50632;BME280;49583;45.590;-122.498;2023-03-20T00:40:39;100045.42;;;12.49;51.22
50632;BME280;49583;45.590;-122.498;2023-03-20T00:42:57;100043.92;;;12.46;51.93
50632;BME280;49583;45.590;-122.498;2023-03-20T00:45:15;100038.83;;;12.45;52.21
50632;BME280;49583;45.590;-122.498;2023-03-20T00:47:36;100036.15;;;12.43;52.81
50632;BME280;49583;45.590;-122.498;2023-03-20T00:49:52;100037.77;;;12.41;53.41
50632;BME280;49583;45.590;-122.498;2023-03-20T00:52:06;100033.06;;;12.40;53.99
50632;BME280;49583;45.590;-122.498;2023-03-20T00:54:19;100032.67;;;12.37;54.42
50632;BME280;49583;45.590;-122.498;2023-03-20T00:56:34;100031.24;;;12.34;54.85
50632;BME280;49583;45.590;-122.498;2023-03-20T00:58:47;100032.24;;;12.32;55.43
50632;BME280;49583;45.590;-122.498;2023-03-20T01:01:00;100033.51;;;12.29;55.58
50632;BME280;49583;45.590;-122.498;2023-03-20T01:03:18;100028.77;;;12.27;55.82
50632;BME280;49583;45.590;-122.498;2023-03-20T01:05:31;100029.00;;;12.24;56.41
50632;BME280;49583;45.590;-122.498;2023-03-20T01:07:44;100026.42;;;12.22;56.69
50632;BME280;49583;45.590;-122.498;2023-03-20T01:09:57;100025.14;;;12.19;57.01
50632;BME280;49583;45.590;-122.498;2023-03-20T01:12:12;100022.85;;;12.17;57.35
50632;BME280;49583;45.590;-122.498;2023-03-20T01:14:25;100019.09;;;12.15;57.80
50632;BME280;49583;45.590;-122.498;2023-03-20T01:16:38;100013.36;;;12.13;58.01
50632;BME280;49583;45.590;-122.498;2023-03-20T01:18:54;100015.84;;;12.09;58.59
50632;BME280;49583;45.590;-122.498;2023-03-20T01:21:07;100015.52;;;12.07;58.57
50632;BME280;49583;45.590;-122.498;2023-03-20T01:23:20;100018.41;;;12.04;58.96
50632;BME280;49583;45.590;-122.498;2023-03-20T01:25:35;100016.89;;;11.98;59.28
50632;BME280;49583;45.590;-122.498;2023-03-20T01:27:51;100016.78;;;11.90;59.43
50632;BME280;49583;45.590;-122.498;2023-03-20T01:30:05;100012.59;;;11.87;59.83
50632;BME280;49583;45.590;-122.498;2023-03-20T01:32:24;100015.01;;;11.82;60.21
50632;BME280;49583;45.590;-122.498;2023-03-20T01:34:38;100013.70;;;11.74;60.46
50632;BME280;49583;45.590;-122.498;2023-03-20T01:36:53;100009.70;;;11.66;61.09
50632;BME280;49583;45.590;-122.498;2023-03-20T01:39:08;100002.07;;;11.59;61.30
50632;BME280;49583;45.590;-122.498;2023-03-20T01:41:23;100005.40;;;11.53;61.92
50632;BME280;49583;45.590;-122.498;2023-03-20T01:43:36;100006.83;;;11.46;61.85
50632;BME280;49583;45.590;-122.498;2023-03-20T01:45:56;100002.95;;;11.41;61.93
50632;BME280;49583;45.590;-122.498;2023-03-20T01:48:16;99999.23;;;11.35;62.73
50632;BME280;49583;45.590;-122.498;2023-03-20T01:50:34;99998.27;;;11.29;62.97
50632;BME280;49583;45.590;-122.498;2023-03-20T01:52:50;99993.66;;;11.23;63.16
50632;BME280;49583;45.590;-122.498;2023-03-20T01:55:05;99994.55;;;11.16;63.21
50632;BME280;49583;45.590;-122.498;2023-03-20T01:57:21;99992.46;;;11.10;63.61
50632;BME280;49583;45.590;-122.498;2023-03-20T01:59:40;99991.88;;;11.06;63.69
50632;BME280;49583;45.590;-122.498;2023-03-20T02:01:57;99986.44;;;11.01;63.80
50632;BME280;49583;45.590;-122.498;2023-03-20T02:04:10;99981.88;;;10.99;64.02
50632;BME280;49583;45.590;-122.498;2023-03-20T02:06:34;99983.91;;;10.97;64.33
50632;BME280;49583;45.590;-122.498;2023-03-20T02:08:56;99978.01;;;10.95;64.49
50632;BME280;49583;45.590;-122.498;2023-03-20T02:11:13;99978.06;;;10.93;64.43
50632;BME280;49583;45.590;-122.498;2023-03-20T02:13:28;99973.57;;;10.88;64.65
50632;BME280;49583;45.590;-122.498;2023-03-20T02:18:25;99958.55;;;10.80;65.24
50632;BME280;49583;45.590;-122.498;2023-03-20T02:20:53;99951.81;;;10.70;65.65
50632;BME280;49583;45.590;-122.498;2023-03-20T02:26:18;99942.51;;;10.53;66.02
50632;BME280;49583;45.590;-122.498;2023-03-20T02:39:45;99932.88;;;10.23;67.43
50632;BME280;49583;45.590;-122.498;2023-03-20T02:42:10;99930.42;;;10.19;66.91
50632;BME280;49583;45.590;-122.498;2023-03-20T02:44:30;99926.19;;;10.15;67.10
50632;BME280;49583;45.590;-122.498;2023-03-20T02:46:55;99926.98;;;10.13;67.15
50632;BME280;49583;45.590;-122.498;2023-03-20T02:49:17;99923.94;;;10.09;67.29
50632;BME280;49583;45.590;-122.498;2023-03-20T02:51:38;99923.65;;;10.03;67.59
50632;BME280;49583;45.590;-122.498;2023-03-20T02:53:57;99919.70;;;9.99;67.69
50632;BME280;49583;45.590;-122.498;2023-03-20T02:56:19;99916.23;;;9.96;67.72
50632;BME280;49583;45.590;-122.498;2023-03-20T02:58:38;99918.45;;;9.94;67.85
50632;BME280;49583;45.590;-122.498;2023-03-20T03:00:58;99915.45;;;9.92;67.73
50632;BME280;49583;45.590;-122.498;2023-03-20T03:03:14;99910.30;;;9.90;67.98
50632;BME280;49583;45.590;-122.498;2023-03-20T03:05:33;99906.23;;;9.89;67.87
50632;BME280;49583;45.590;-122.498;2023-03-20T03:07:51;99903.86;;;9.88;67.88
50632;BME280;49583;45.590;-122.498;2023-03-20T03:10:12;99904.86;;;9.86;68.22
50632;BME280;49583;45.590;-122.498;2023-03-20T03:12:30;99912.96;;;9.85;67.94
50632;BME280;49583;45.590;-122.498;2023-03-20T03:14:48;99921.00;;;9.84;68.40
50632;BME280;49583;45.590;-122.498;2023-03-20T03:17:05;99923.52;;;9.79;68.13
50632;BME280;49583;45.590;-122.498;2023-03-20T03:19:23;99929.30;;;9.73;68.73
50632;BME280;49583;45.590;-122.498;2023-03-20T03:21:38;99929.92;;;9.66;69.11
50632;BME280;49583;45.590;-122.498;2023-03-20T03:23:54;99922.73;;;9.61;69.26
50632;BME280;49583;45.590;-122.498;2023-03-20T03:26:10;99928.70;;;9.56;69.12
50632;BME280;49583;45.590;-122.498;2023-03-20T03:28:30;99927.92;;;9.53;69.16
50632;BME280;49583;45.590;-122.498;2023-03-20T03:30:48;99931.51;;;9.50;69.29
50632;BME280;49583;45.590;-122.498;2023-03-20T03:33:13;99934.15;;;9.50;69.36
50632;BME280;49583;45.590;-122.498;2023-03-20T03:35:32;99933.40;;;9.47;69.76
50632;BME280;49583;45.590;-122.498;2023-03-20T03:37:52;99932.18;;;9.44;70.30
50632;BME280;49583;45.590;-122.498;2023-03-20T03:40:17;99929.69;;;9.39;70.16
50632;BME280;49583;45.590;-122.498;2023-03-20T03:42:34;99930.44;;;9.35;70.33
50632;BME280;49583;45.590;-122.498;2023-03-20T03:44:58;99927.48;;;9.32;70.24
50632;BME280;49583;45.590;-122.498;2023-03-20T03:47:17;99932.95;;;9.32;70.61
50632;BME280;49583;45.590;-122.498;2023-03-20T03:49:35;99935.79;;;9.28;70.48
50632;BME280;49583;45.590;-122.498;2023-03-20T03:51:51;99934.46;;;9.23;70.71
50632;BME280;49583;45.590;-122.498;2023-03-20T03:54:08;99938.26;;;9.21;70.62
50632;BME280;49583;45.590;-122.498;2023-03-20T03:56:26;99939.29;;;9.17;70.74
50632;BME280;49583;45.590;-122.498;2023-03-20T03:58:42;99943.45;;;9.13;71.05
50632;BME280;49583;45.590;-122.498;2023-03-20T04:00:58;99945.68;;;9.11;70.88
50632;BME280;49583;45.590;-122.498;2023-03-20T04:03:16;99949.98;;;9.08;71.18
50632;BME280;49583;45.590;-122.498;2023-03-20T04:05:34;99944.70;;;9.03;71.64
50632;BME280;49583;45.590;-122.498;2023-03-20T04:07:51;99948.16;;;9.00;71.86
50632;BME280;49583;45.590;-122.498;2023-03-20T04:10:06;99945.10;;;8.94;71.79
50632;BME280;49583;45.590;-122.498;2023-03-20T04:12:34;99946.92;;;8.91;72.16
50632;BME280;49583;45.590;-122.498;2023-03-20T04:14:50;99946.51;;;8.88;72.16
50632;BME280;49583;45.590;-122.498;2023-03-20T04:17:05;99950.48;;;8.84;72.49
50632;BME280;49583;45.590;-122.498;2023-03-20T04:19:18;99944.09;;;8.79;72.72
50632;BME280;49583;45.590;-122.498;2023-03-20T04:21:31;99951.58;;;8.76;72.54
50632;BME280;49583;45.590;-122.498;2023-03-20T04:23:44;99951.11;;;8.74;72.74
50632;BME280;49583;45.590;-122.498;2023-03-20T04:25:56;99951.83;;;8.71;72.73
50632;BME280;49583;45.590;-122.498;2023-03-20T04:28:10;99946.53;;;8.68;73.31
50632;BME280;49583;45.590;-122.498;2023-03-20T04:30:37;99944.63;;;8.65;73.69
50632;BME280;49583;45.590;-122.498;2023-03-20T04:32:50;99944.58;;;8.63;74.51
50632;BME280;49583;45.590;-122.498;2023-03-20T04:35:35;99940.39;;;8.59;74.60
50632;BME280;49583;45.590;-122.498;2023-03-20T04:37:53;99941.45;;;8.58;74.11
50632;BME280;49583;45.590;-122.498;2023-03-20T04:40:09;99945.98;;;8.59;73.94
50632;BME280;49583;45.590;-122.498;2023-03-20T04:42:24;99939.29;;;8.58;74.00
50632;BME280;49583;45.590;-122.498;2023-03-20T04:44:41;99935.46;;;8.59;73.93
50632;BME280;49583;45.590;-122.498;2023-03-20T04:46:55;99935.70;;;8.58;73.97
50632;BME280;49583;45.590;-122.498;2023-03-20T04:49:09;99937.77;;;8.57;74.19
50632;BME280;49583;45.590;-122.498;2023-03-20T04:51:23;99937.00;;;8.57;74.22
50632;BME280;49583;45.590;-122.498;2023-03-20T04:53:36;99933.84;;;8.55;74.34
50632;BME280;49583;45.590;-122.498;2023-03-20T04:55:50;99932.24;;;8.54;74.42
50632;BME280;49583;45.590;-122.498;2023-03-20T04:58:03;99934.66;;;8.54;74.39
50632;BME280;49583;45.590;-122.498;2023-03-20T05:00:17;99923.30;;;8.49;74.52
50632;BME280;49583;45.590;-122.498;2023-03-20T05:02:31;99928.99;;;8.50;74.99
50632;BME280;49583;45.590;-122.498;2023-03-20T05:04:44;99926.28;;;8.46;75.08
50632;BME280;49583;45.590;-122.498;2023-03-20T05:06:57;99927.55;;;8.44;75.13
50632;BME280;49583;45.590;-122.498;2023-03-20T05:09:16;99922.88;;;8.43;75.08
50632;BME280;49583;45.590;-122.498;2023-03-20T05:11:31;99923.84;;;8.41;75.09
50632;BME280;49583;45.590;-122.498;2023-03-20T05:13:47;99923.26;;;8.38;75.36
50632;BME280;49583;45.590;-122.498;2023-03-20T05:16:16;99921.00;;;8.39;75.44
50632;BME280;49583;45.590;-122.498;2023-03-20T05:18:40;99922.56;;;8.39;75.27
50632;BME280;49583;45.590;-122.498;2023-03-20T05:21:19;99924.44;;;8.39;75.35
50632;BME280;49583;45.590;-122.498;2023-03-20T05:23:51;99925.82;;;8.38;75.30
50632;BME280;49583;45.590;-122.498;2023-03-20T05:26:27;99923.13;;;8.36;75.68
50632;BME280;49583;45.590;-122.498;2023-03-20T05:28:57;99918.35;;;8.34;75.65
50632;BME280;49583;45.590;-122.498;2023-03-20T05:31:29;99918.56;;;8.33;75.49
50632;BME280;49583;45.590;-122.498;2023-03-20T05:33:41;99920.88;;;8.32;75.71
50632;BME280;49583;45.590;-122.498;2023-03-20T05:36:07;99930.44;;;8.31;75.73
50632;BME280;49583;45.590;-122.498;2023-03-20T05:38:43;99938.02;;;8.29;75.78
50632;BME280;49583;45.590;-122.498;2023-03-20T05:41:28;99935.35;;;8.28;75.85
50632;BME280;49583;45.590;-122.498;2023-03-20T05:44:00;99926.73;;;8.26;76.02
50632;BME280;49583;45.590;-122.498;2023-03-20T05:46:25;99925.64;;;8.23;76.59
50632;BME280;49583;45.590;-122.498;2023-03-20T05:48:50;99923.36;;;8.20;76.40
50632;BME280;49583;45.590;-122.498;2023-03-20T05:51:32;99922.31;;;8.18;76.77
50632;BME280;49583;45.590;-122.498;2023-03-20T05:54:13;99918.39;;;8.17;76.81
50632;BME280;49583;45.590;-122.498;2023-03-20T05:56:44;99919.32;;;8.17;76.99
50632;BME280;49583;45.590;-122.498;2023-03-20T05:59:11;99913.64;;;8.17;77.32
50632;BME280;49583;45.590;-122.498;2023-03-20T06:01:53;99917.30;;;8.17;77.20
50632;BME280;49583;45.590;-122.498;2023-03-20T06:04:09;99923.74;;;8.16;77.19
50632;BME280;49583;45.590;-122.498;2023-03-20T06:06:48;99921.74;;;8.14;77.17
50632;BME280;49583;45.590;-122.498;2023-03-20T06:09:01;99924.70;;;8.13;77.26
50632;BME280;49583;45.590;-122.498;2023-03-20T06:11:16;99923.77;;;8.12;77.54
50632;BME280;49583;45.590;-122.498;2023-03-20T06:13:30;99922.98;;;8.09;77.70
50632;BME280;49583;45.590;-122.498;2023-03-20T06:15:43;99916.77;;;8.05;78.13
50632;BME280;49583;45.590;-122.498;2023-03-20T06:17:59;99912.73;;;8.02;78.20
50632;BME280;49583;45.590;-122.498;2023-03-20T06:20:14;99911.29;;;8.00;78.22
50632;BME280;49583;45.590;-122.498;2023-03-20T06:22:28;99914.84;;;7.99;78.39
50632;BME280;49583;45.590;-122.498;2023-03-20T06:24:41;99915.36;;;7.97;78.66
50632;BME280;49583;45.590;-122.498;2023-03-20T06:26:55;99908.98;;;7.94;78.92
50632;BME280;49583;45.590;-122.498;2023-03-20T06:29:08;99906.61;;;7.92;78.78
50632;BME280;49583;45.590;-122.498;2023-03-20T06:31:21;99908.77;;;7.92;78.77
50632;BME280;49583;45.590;-122.498;2023-03-20T06:33:35;99906.00;;;7.92;78.82
50632;BME280;49583;45.590;-122.498;2023-03-20T06:35:49;99908.20;;;7.93;78.66
50632;BME280;49583;45.590;-122.498;2023-03-20T06:38:03;99907.12;;;7.94;78.74
50632;BME280;49583;45.590;-122.498;2023-03-20T06:40:16;99910.81;;;7.95;78.91
50632;BME280;49583;45.590;-122.498;2023-03-20T06:42:31;99914.96;;;7.96;78.66
50632;BME280;49583;45.590;-122.498;2023-03-20T06:44:45;99913.97;;;7.97;78.64
50632;BME280;49583;45.590;-122.498;2023-03-20T06:47:18;99914.89;;;7.96;78.55
50632;BME280;49583;45.590;-122.498;2023-03-20T06:49:32;99923.83;;;7.96;78.66
50632;BME280;49583;45.590;-122.498;2023-03-20T06:51:46;99930.11;;;7.94;78.63
50632;BME280;49583;45.590;-122.498;2023-03-20T06:54:05;99928.73;;;7.92;78.49
50632;BME280;49583;45.590;-122.498;2023-03-20T06:56:18;99927.83;;;7.90;78.43
50632;BME280;49583;45.590;-122.498;2023-03-20T06:58:31;99928.27;;;7.88;78.70
50632;BME280;49583;45.590;-122.498;2023-03-20T07:00:44;99927.15;;;7.87;79.04
50632;BME280;49583;45.590;-122.498;2023-03-20T07:02:57;99936.61;;;7.85;78.96
50632;BME280;49583;45.590;-122.498;2023-03-20T07:05:11;99939.62;;;7.84;79.20
50632;BME280;49583;45.590;-122.498;2023-03-20T07:07:26;99935.08;;;7.83;78.95
50632;BME280;49583;45.590;-122.498;2023-03-20T07:09:39;99932.98;;;7.83;79.37
50632;BME280;49583;45.590;-122.498;2023-03-20T07:11:53;99934.91;;;7.81;79.46
50632;BME280;49583;45.590;-122.498;2023-03-20T07:14:05;99926.23;;;7.79;79.76
50632;BME280;49583;45.590;-122.498;2023-03-20T07:16:32;99917.52;;;7.80;79.57
50632;BME280;49583;45.590;-122.498;2023-03-20T07:18:45;99930.02;;;7.82;79.54
50632;BME280;49583;45.590;-122.498;2023-03-20T07:21:00;99929.70;;;7.83;79.44
50632;BME280;49583;45.590;-122.498;2023-03-20T07:23:14;99935.52;;;7.85;79.40
50632;BME280;49583;45.590;-122.498;2023-03-20T07:25:27;99929.52;;;7.85;79.22
50632;BME280;49583;45.590;-122.498;2023-03-20T07:27:53;99929.25;;;7.86;79.36
50632;BME280;49583;45.590;-122.498;2023-03-20T07:30:09;99931.60;;;7.87;79.16
50632;BME280;49583;45.590;-122.498;2023-03-20T07:32:22;99932.19;;;7.89;79.13
50632;BME280;49583;45.590;-122.498;2023-03-20T07:34:35;99926.85;;;7.88;79.12
50632;BME280;49583;45.590;-122.498;2023-03-20T07:36:49;99924.61;;;7.92;79.14
50632;BME280;49583;45.590;-122.498;2023-03-20T07:39:02;99925.91;;;7.94;79.48
50632;BME280;49583;45.590;-122.498;2023-03-20T07:41:16;99929.46;;;7.98;79.47
50632;BME280;49583;45.590;-122.498;2023-03-20T07:43:38;99929.98;;;8.00;79.54
50632;BME280;49583;45.590;-122.498;2023-03-20T07:46:03;99926.77;;;8.02;79.66
50632;BME280;49583;45.590;-122.498;2023-03-20T07:48:19;99928.50;;;8.03;79.75
50632;BME280;49583;45.590;-122.498;2023-03-20T07:50:32;99925.48;;;8.01;79.44
50632;BME280;49583;45.590;-122.498;2023-03-20T07:52:49;99933.98;;;8.06;79.34
50632;BME280;49583;45.590;-122.498;2023-03-20T07:55:03;99932.02;;;8.08;79.26
50632;BME280;49583;45.590;-122.498;2023-03-20T07:57:18;99930.41;;;8.10;79.04
50632;BME280;49583;45.590;-122.498;2023-03-20T07:59:33;99930.29;;;8.11;79.06
50632;BME280;49583;45.590;-122.498;2023-03-20T08:01:46;99933.20;;;8.13;78.90
50632;BME280;49583;45.590;-122.498;2023-03-20T08:03:59;99930.21;;;8.16;79.06
50632;BME280;49583;45.590;-122.498;2023-03-20T08:06:13;99934.71;;;8.19;78.84
50632;BME280;49583;45.590;-122.498;2023-03-20T08:08:26;99936.23;;;8.22;78.98
50632;BME280;49583;45.590;-122.498;2023-03-20T08:10:39;99935.36;;;8.25;78.70
50632;BME280;49583;45.590;-122.498;2023-03-20T08:12:52;99936.81;;;8.27;78.85
50632;BME280;49583;45.590;-122.498;2023-03-20T08:15:05;99933.13;;;8.30;78.79
50632;BME280;49583;45.590;-122.498;2023-03-20T08:17:20;99932.20;;;8.33;78.54
50632;BME280;49583;45.590;-122.498;2023-03-20T08:19:33;99931.55;;;8.37;78.74
50632;BME280;49583;45.590;-122.498;2023-03-20T08:21:46;99936.15;;;8.40;78.65
50632;BME280;49583;45.590;-122.498;2023-03-20T08:24:00;99933.24;;;8.43;78.58
50632;BME280;49583;45.590;-122.498;2023-03-20T08:26:13;99936.17;;;8.46;78.45
50632;BME280;49583;45.590;-122.498;2023-03-20T08:28:26;99935.82;;;8.47;78.71
50632;BME280;49583;45.590;-122.498;2023-03-20T08:30:55;99938.13;;;8.46;78.41
50632;BME280;49583;45.590;-122.498;2023-03-20T08:33:09;99937.36;;;8.43;78.33
50632;BME280;49583;45.590;-122.498;2023-03-20T08:35:22;99939.79;;;8.43;78.34
50632;BME280;49583;45.590;-122.498;2023-03-20T08:37:41;99939.69;;;8.42;78.08
50632;BME280;49583;45.590;-122.498;2023-03-20T08:39:54;99938.14;;;8.42;78.32
50632;BME280;49583;45.590;-122.498;2023-03-20T08:42:07;99940.34;;;8.44;78.41
50632;BME280;49583;45.590;-122.498;2023-03-20T08:44:20;99941.94;;;8.46;78.45
50632;BME280;49583;45.590;-122.498;2023-03-20T08:46:32;99943.02;;;8.49;78.43
50632;BME280;49583;45.590;-122.498;2023-03-20T08:48:45;99940.07;;;8.50;78.26
50632;BME280;49583;45.590;-122.498;2023-03-20T08:50:59;99942.33;;;8.50;78.06
50632;BME280;49583;45.590;-122.498;2023-03-20T08:53:12;99941.40;;;8.50;78.06
50632;BME280;49583;45.590;-122.498;2023-03-20T08:55:25;99941.88;;;8.51;78.06
50632;BME280;49583;45.590;-122.498;2023-03-20T08:57:38;99939.59;;;8.50;78.11
50632;BME280;49583;45.590;-122.498;2023-03-20T08:59:52;99942.41;;;8.50;78.18
50632;BME280;49583;45.590;-122.498;2023-03-20T09:02:07;99942.11;;;8.50;78.06
50632;BME280;49583;45.590;-122.498;2023-03-20T09:04:21;99941.35;;;8.52;78.33
50632;BME280;49583;45.590;-122.498;2023-03-20T09:06:37;99940.24;;;8.52;78.47
50632;BME280;49583;45.590;-122.498;2023-03-20T09:08:50;99938.23;;;8.53;78.47
50632;BME280;49583;45.590;-122.498;2023-03-20T09:11:03;99940.63;;;8.55;78.65
50632;BME280;49583;45.590;-122.498;2023-03-20T09:13:16;99941.77;;;8.57;78.59
50632;BME280;49583;45.590;-122.498;2023-03-20T09:15:36;99944.52;;;8.60;78.66
50632;BME280;49583;45.590;-122.498;2023-03-20T09:17:49;99940.88;;;8.62;78.62
50632;BME280;49583;45.590;-122.498;2023-03-20T09:20:02;99941.15;;;8.63;78.83
50632;BME280;49583;45.590;-122.498;2023-03-20T09:22:16;99944.04;;;8.64;78.84
50632;BME280;49583;45.590;-122.498;2023-03-20T09:24:29;99943.70;;;8.63;78.75
50632;BME280;49583;45.590;-122.498;2023-03-20T09:26:44;99937.92;;;8.62;79.16
50632;BME280;49583;45.590;-122.498;2023-03-20T09:28:57;99937.84;;;8.61;78.94
50632;BME280;49583;45.590;-122.498;2023-03-20T09:31:11;99940.11;;;8.62;79.21
50632;BME280;49583;45.590;-122.498;2023-03-20T09:33:24;99938.07;;;8.61;79.06
50632;BME280;49583;45.590;-122.498;2023-03-20T09:35:37;99941.41;;;8.61;79.05
50632;BME280;49583;45.590;-122.498;2023-03-20T09:37:52;99939.31;;;8.62;79.07
50632;BME280;49583;45.590;-122.498;2023-03-20T09:40:09;99936.95;;;8.63;79.09
50632;BME280;49583;45.590;-122.498;2023-03-20T09:42:41;99936.77;;;8.66;79.46
50632;BME280;49583;45.590;-122.498;2023-03-20T09:45:04;99937.01;;;8.68;79.36
50632;BME280;49583;45.590;-122.498;2023-03-20T09:47:25;99942.04;;;8.69;79.24
50632;BME280;49583;45.590;-122.498;2023-03-20T09:49:47;99936.07;;;8.71;79.40
50632;BME280;49583;45.590;-122.498;2023-03-20T09:52:02;99939.73;;;8.71;79.20
50632;BME280;49583;45.590;-122.498;2023-03-20T09:54:20;99940.35;;;8.71;79.08
50632;BME280;49583;45.590;-122.498;2023-03-20T09:56:35;99939.38;;;8.69;79.23
50632;BME280;49583;45.590;-122.498;2023-03-20T09:58:54;99939.36;;;8.68;79.38
50632;BME280;49583;45.590;-122.498;2023-03-20T10:01:12;99933.73;;;8.68;78.96
50632;BME280;49583;45.590;-122.498;2023-03-20T10:03:31;99933.32;;;8.66;78.94
50632;BME280;49583;45.590;-122.498;2023-03-20T10:05:48;99936.92;;;8.66;79.00
50632;BME280;49583;45.590;-122.498;2023-03-20T10:08:04;99931.85;;;8.66;78.89
50632;BME280;49583;45.590;-122.498;2023-03-20T10:10:19;99932.38;;;8.65;78.97
50632;BME280;49583;45.590;-122.498;2023-03-20T10:12:50;99933.91;;;8.63;79.24
50632;BME280;49583;45.590;-122.498;2023-03-20T10:15:17;99937.45;;;8.62;78.88
50632;BME280;49583;45.590;-122.498;2023-03-20T10:17:46;99937.36;;;8.61;78.79
50632;BME280;49583;45.590;-122.498;2023-03-20T10:20:09;99937.35;;;8.60;79.14
50632;BME280;49583;45.590;-122.498;2023-03-20T10:22:25;99936.41;;;8.58;79.07
50632;BME280;49583;45.590;-122.498;2023-03-20T10:24:41;99936.31;;;8.58;78.99
50632;BME280;49583;45.590;-122.498;2023-03-20T10:27:01;99940.61;;;8.58;79.00
50632;BME280;49583;45.590;-122.498;2023-03-20T10:29:25;99939.45;;;8.59;78.94
50632;BME280;49583;45.590;-122.498;2023-03-20T10:31:46;99941.73;;;8.61;79.06
50632;BME280;49583;45.590;-122.498;2023-03-20T10:34:11;99942.90;;;8.61;78.86
50632;BME280;49583;45.590;-122.498;2023-03-20T10:36:45;99941.10;;;8.60;78.68
50632;BME280;49583;45.590;-122.498;2023-03-20T10:39:07;99936.41;;;8.60;78.88
50632;BME280;49583;45.590;-122.498;2023-03-20T10:41:24;99934.00;;;8.59;79.04
50632;BME280;49583;45.590;-122.498;2023-03-20T10:43:41;99934.47;;;8.59;78.67
50632;BME280;49583;45.590;-122.498;2023-03-20T10:45:59;99934.55;;;8.59;78.78
50632;BME280;49583;45.590;-122.498;2023-03-20T10:48:19;99938.72;;;8.58;78.93
50632;BME280;49583;45.590;-122.498;2023-03-20T10:50:34;99940.20;;;8.57;78.80
50632;BME280;49583;45.590;-122.498;2023-03-20T10:52:50;99944.95;;;8.57;78.96
50632;BME280;49583;45.590;-122.498;2023-03-20T10:55:09;99948.45;;;8.57;79.08
50632;BME280;49583;45.590;-122.498;2023-03-20T10:57:25;99951.17;;;8.57;79.02
50632;BME280;49583;45.590;-122.498;2023-03-20T10:59:44;99955.22;;;8.56;79.04
50632;BME280;49583;45.590;-122.498;2023-03-20T11:01:59;99959.12;;;8.56;79.13
50632;BME280;49583;45.590;-122.498;2023-03-20T11:04:12;99957.76;;;8.54;79.10
50632;BME280;49583;45.590;-122.498;2023-03-20T11:06:29;99961.39;;;8.52;78.85
50632;BME280;49583;45.590;-122.498;2023-03-20T11:08:45;99958.16;;;8.50;78.90
50632;BME280;49583;45.590;-122.498;2023-03-20T11:11:02;99963.98;;;8.49;79.00
50632;BME280;49583;45.590;-122.498;2023-03-20T11:13:26;99965.34;;;8.47;78.85
50632;BME280;49583;45.590;-122.498;2023-03-20T11:15:41;99965.53;;;8.43;79.10
50632;BME280;49583;45.590;-122.498;2023-03-20T11:17:56;99969.70;;;8.42;79.20
50632;BME280;49583;45.590;-122.498;2023-03-20T11:20:14;99974.74;;;8.41;79.20
50632;BME280;49583;45.590;-122.498;2023-03-20T11:22:30;99974.96;;;8.40;79.21
50632;BME280;49583;45.590;-122.498;2023-03-20T11:24:44;99976.90;;;8.40;79.23
50632;BME280;49583;45.590;-122.498;2023-03-20T11:27:06;99977.55;;;8.37;79.32
50632;BME280;49583;45.590;-122.498;2023-03-20T11:29:30;99984.33;;;8.37;79.34
50632;BME280;49583;45.590;-122.498;2023-03-20T11:31:46;99985.81;;;8.37;79.28
50632;BME280;49583;45.590;-122.498;2023-03-20T11:34:18;99984.38;;;8.36;79.45
50632;BME280;49583;45.590;-122.498;2023-03-20T11:36:34;99989.39;;;8.37;79.52
50632;BME280;49583;45.590;-122.498;2023-03-20T11:38:51;99990.23;;;8.35;79.53
50632;BME280;49583;45.590;-122.498;2023-03-20T11:41:10;99988.63;;;8.37;79.57
50632;BME280;49583;45.590;-122.498;2023-03-20T11:43:29;99996.40;;;8.40;79.46
50632;BME280;49583;45.590;-122.498;2023-03-20T11:45:49;99994.64;;;8.41;79.66
50632;BME280;49583;45.590;-122.498;2023-03-20T11:48:03;100001.20;;;8.43;79.50
50632;BME280;49583;45.590;-122.498;2023-03-20T11:50:29;100003.80;;;8.45;79.52
50632;BME280;49583;45.590;-122.498;2023-03-20T11:52:43;100004.56;;;8.47;79.62
50632;BME280;49583;45.590;-122.498;2023-03-20T11:54:57;100006.70;;;8.49;79.73
50632;BME280;49583;45.590;-122.498;2023-03-20T11:57:33;100010.61;;;8.49;79.30
50632;BME280;49583;45.590;-122.498;2023-03-20T11:59:46;100016.59;;;8.52;79.52
50632;BME280;49583;45.590;-122.498;2023-03-20T12:02:00;100014.25;;;8.53;79.52